sensor_id;sensor_type;location;lat;lon;timestamp;temperature;humidity
28608;DHT22;15802;45.654;13.804;2023-03-01T00:01:33;5.10;99.90
28608;DHT22;15802;45.654;13.804;2023-03-01T00:03:59;5.20;99.90
28608;DHT22;15802;45.654;13.804;2023-03-01T00:06:25;5.20;99.90
28608;DHT22;15802;45.654;13.804;2023-03-01T00:08:51;5.20;99.90
28608;DHT22;15802;45.654;13.804;2023-03-01T00:11:19;5.20;99.90
28608;DHT22;15802;45.654;13.804;2023-03-01T00:13:46;5.30;99.90
28608;DHT22;15802;45.654;13.804;2023-03-01T00:16:13;5.20;99.90
28608;DHT22;15802;45.654;13.804;2023-03-01T00:18:39;5.20;99.90
28608;DHT22;15802;45.654;13.804;2023-03-01T00:21:05;5.30;99.90
28608;DHT22;15802;45.654;13.804;2023-03-01T00:23:31;5.30;99.90
28608;DHT22;15802;45.654;13.804;2023-03-01T00:25:59;5.20;99.90
28608;DHT22;15802;45.654;13.804;2023-03-01T00:28:24;5.20;99.90
28608;DHT22;15802;45.654;13.804;2023-03-01T00:30:53;5.20;99.90
28608;DHT22;15802;45.654;13.804;2023-03-01T00:33:19;5.20;99.90
28608;DHT22;15802;45.654;13.804;2023-03-01T00:35:45;5.30;99.90
28608;DHT22;15802;45.654;13.804;2023-03-01T00:38:10;5.20;99.90
28608;DHT22;15802;45.654;13.804;2023-03-01T00:40:36;5.20;99.90
28608;DHT22;15802;45.654;13.804;2023-03-01T00:43:02;5.20;99.90
28608;DHT22;15802;45.654;13.804;2023-03-01T00:45:32;5.20;99.90
28608;DHT22;15802;45.654;13.804;2023-03-01T00:47:58;5.20;99.90
28608;DHT22;15802;45.654;13.804;2023-03-01T00:50:23;5.20;99.90
28608;DHT22;15802;45.654;13.804;2023-03-01T00:52:52;5.20;99.90
28608;DHT22;15802;45.654;13.804;2023-03-01T00:55:17;5.10;99.90
28608;DHT22;15802;45.654;13.804;2023-03-01T00:57:43;5.20;99.90
28608;DHT22;15802;45.654;13.804;2023-03-01T01:00:09;5.20;99.90
28608;DHT22;15802;45.654;13.804;2023-03-01T01:02:36;5.10;99.90
28608;DHT22;15802;45.654;13.804;2023-03-01T01:05:02;5.10;99.90
28608;DHT22;15802;45.654;13.804;2023-03-01T01:07:28;5.10;99.90
28608;DHT22;15802;45.654;13.804;2023-03-01T01:09:53;5.20;99.90
28608;DHT22;15802;45.654;13.804;2023-03-01T01:12:19;5.10;99.90
28608;DHT22;15802;45.654;13.804;2023-03-01T01:14:45;5.10;99.90
28608;DHT22;15802;45.654;13.804;2023-03-01T01:17:11;5.20;99.90
28608;DHT22;15802;45.654;13.804;2023-03-01T01:19:37;5.10;99.90
28608;DHT22;15802;45.654;13.804;2023-03-01T01:22:05;5.10;99.90
28608;DHT22;15802;45.654;13.804;2023-03-01T01:24:30;5.10;99.90
28608;DHT22;15802;45.654;13.804;2023-03-01T01:26:56;5.10;99.90
28608;DHT22;15802;45.654;13.804;2023-03-01T01:29:22;5.10;99.90
28608;DHT22;15802;45.654;13.804;2023-03-01T01:31:48;5.10;99.90
28608;DHT22;15802;45.654;13.804;2023-03-01T01:34:15;5.10;99.90
28608;DHT22;15802;45.654;13.804;2023-03-01T01:36:41;5.10;99.90
28608;DHT22;15802;45.654;13.804;2023-03-01T01:39:07;5.00;99.90
28608;DHT22;15802;45.654;13.804;2023-03-01T01:41:32;5.00;99.90
28608;DHT22;15802;45.654;13.804;2023-03-01T01:44:15;5.10;99.90
28608;DHT22;15802;45.654;13.804;2023-03-01T01:46:43;5.10;99.90
28608;DHT22;15802;45.654;13.804;2023-03-01T01:51:55;5.00;99.90
28608;DHT22;15802;45.654;13.804;2023-03-01T01:54:24;5.10;99.90
28608;DHT22;15802;45.654;13.804;2023-03-01T01:56:55;5.10;99.90
28608;DHT22;15802;45.654;13.804;2023-03-01T01:59:22;5.10;99.90
28608;DHT22;15802;45.654;13.804;2023-03-01T02:01:50;5.10;99.90
28608;DHT22;15802;45.654;13.804;2023-03-01T02:04:16;5.20;99.90
28608;DHT22;15802;45.654;13.804;2023-03-01T02:06:51;5.20;99.90
28608;DHT22;15802;45.654;13.804;2023-03-01T02:09:19;5.20;99.90
28608;DHT22;15802;45.654;13.804;2023-03-01T02:11:46;5.20;99.90
28608;DHT22;15802;45.654;13.804;2023-03-01T02:14:12;5.20;99.90
28608;DHT22;15802;45.654;13.804;2023-03-01T02:16:38;5.20;99.90
28608;DHT22;15802;45.654;13.804;2023-03-01T02:19:04;5.20;99.90
28608;DHT22;15802;45.654;13.804;2023-03-01T02:24:20;5.20;99.90
28608;DHT22;15802;45.654;13.804;2023-03-01T02:26:50;5.20;99.90
28608;DHT22;15802;45.654;13.804;2023-03-01T02:29:17;5.30;99.90
28608;DHT22;15802;45.654;13.804;2023-03-01T02:31:43;5.30;99.90
28608;DHT22;15802;45.654;13.804;2023-03-01T02:34:14;5.20;99.90
28608;DHT22;15802;45.654;13.804;2023-03-01T02:36:44;5.30;99.90
28608;DHT22;15802;45.654;13.804;2023-03-01T02:39:12;5.30;99.90
28608;DHT22;15802;45.654;13.804;2023-03-01T02:41:41;5.30;99.90
28608;DHT22;15802;45.654;13.804;2023-03-01T02:44:07;5.30;99.90
28608;DHT22;15802;45.654;13.804;2023-03-01T02:46:33;5.30;99.90
28608;DHT22;15802;45.654;13.804;2023-03-01T02:48:59;5.30;99.90
28608;DHT22;15802;45.654;13.804;2023-03-01T02:54:12;5.30;99.90
28608;DHT22;15802;45.654;13.804;2023-03-01T02:56:39;5.30;99.90
28608;DHT22;15802;45.654;13.804;2023-03-01T02:59:05;5.30;99.90
28608;DHT22;15802;45.654;13.804;2023-03-01T03:01:31;5.30;99.90
28608;DHT22;15802;45.654;13.804;2023-03-01T03:04:05;5.30;99.90
28608;DHT22;15802;45.654;13.804;2023-03-01T03:06:31;5.30;99.90
28608;DHT22;15802;45.654;13.804;2023-03-01T03:08:57;5.30;99.90
28608;DHT22;15802;45.654;13.804;2023-03-01T03:11:23;5.30;99.90
28608;DHT22;15802;45.654;13.804;2023-03-01T03:13:48;5.30;99.90
28608;DHT22;15802;45.654;13.804;2023-03-01T03:16:14;5.30;99.90
28608;DHT22;15802;45.654;13.804;2023-03-01T03:18:40;5.30;99.90
28608;DHT22;15802;45.654;13.804;2023-03-01T03:21:07;5.30;99.90
28608;DHT22;15802;45.654;13.804;2023-03-01T03:23:35;5.40;99.90
28608;DHT22;15802;45.654;13.804;2023-03-01T03:26:01;5.40;99.90
28608;DHT22;15802;45.654;13.804;2023-03-01T03:28:30;5.40;99.90
28608;DHT22;15802;45.654;13.804;2023-03-01T03:30:56;5.40;99.90
28608;DHT22;15802;45.654;13.804;2023-03-01T03:33:21;5.40;99.90
28608;DHT22;15802;45.654;13.804;2023-03-01T03:35:47;5.40;99.90
28608;DHT22;15802;45.654;13.804;2023-03-01T03:38:14;5.40;99.90
28608;DHT22;15802;45.654;13.804;2023-03-01T03:40:49;5.30;99.90
28608;DHT22;15802;45.654;13.804;2023-03-01T03:43:16;5.30;99.90
28608;DHT22;15802;45.654;13.804;2023-03-01T03:45:43;5.30;99.90
28608;DHT22;15802;45.654;13.804;2023-03-01T03:48:09;5.30;99.90
28608;DHT22;15802;45.654;13.804;2023-03-01T03:50:35;5.30;99.90
28608;DHT22;15802;45.654;13.804;2023-03-01T03:53:02;5.30;99.90
28608;DHT22;15802;45.654;13.804;2023-03-01T03:55:28;5.30;99.90
28608;DHT22;15802;45.654;13.804;2023-03-01T03:57:57;5.40;99.90
28608;DHT22;15802;45.654;13.804;2023-03-01T04:00:23;5.40;99.90
28608;DHT22;15802;45.654;13.804;2023-03-01T04:02:49;5.40;99.90
28608;DHT22;15802;45.654;13.804;2023-03-01T04:05:16;5.30;99.90
28608;DHT22;15802;45.654;13.804;2023-03-01T04:07:42;5.40;99.90
28608;DHT22;15802;45.654;13.804;2023-03-01T04:10:10;5.30;99.90
28608;DHT22;15802;45.654;13.804;2023-03-01T04:12:36;5.30;99.90
28608;DHT22;15802;45.654;13.804;2023-03-01T04:15:03;5.30;99.90
28608;DHT22;15802;45.654;13.804;2023-03-01T04:17:38;5.30;99.90
28608;DHT22;15802;45.654;13.804;2023-03-01T04:20:05;5.20;99.90
28608;DHT22;15802;45.654;13.804;2023-03-01T04:22:31;5.20;99.90
28608;DHT22;15802;45.654;13.804;2023-03-01T04:24:57;5.30;99.90
28608;DHT22;15802;45.654;13.804;2023-03-01T04:27:23;5.30;99.90
28608;DHT22;15802;45.654;13.804;2023-03-01T04:29:49;5.30;99.90
28608;DHT22;15802;45.654;13.804;2023-03-01T04:32:14;5.30;99.90
28608;DHT22;15802;45.654;13.804;2023-03-01T04:34:41;5.30;99.90
28608;DHT22;15802;45.654;13.804;2023-03-01T04:37:07;5.30;99.90
28608;DHT22;15802;45.654;13.804;2023-03-01T04:39:34;5.40;99.90
28608;DHT22;15802;45.654;13.804;2023-03-01T04:42:11;5.40;99.90
28608;DHT22;15802;45.654;13.804;2023-03-01T04:44:37;5.40;99.90
28608;DHT22;15802;45.654;13.804;2023-03-01T04:47:03;5.40;99.90
28608;DHT22;15802;45.654;13.804;2023-03-01T04:49:28;5.40;99.90
28608;DHT22;15802;45.654;13.804;2023-03-01T04:51:54;5.40;99.90
28608;DHT22;15802;45.654;13.804;2023-03-01T04:54:19;5.40;99.90
28608;DHT22;15802;45.654;13.804;2023-03-01T04:56:45;5.50;99.90
28608;DHT22;15802;45.654;13.804;2023-03-01T04:59:11;5.50;99.90
28608;DHT22;15802;45.654;13.804;2023-03-01T05:01:37;5.40;99.90
28608;DHT22;15802;45.654;13.804;2023-03-01T05:04:03;5.40;99.90
28608;DHT22;15802;45.654;13.804;2023-03-01T05:06:30;5.30;99.90
28608;DHT22;15802;45.654;13.804;2023-03-01T05:08:56;5.30;99.90
28608;DHT22;15802;45.654;13.804;2023-03-01T05:11:23;5.30;99.90
28608;DHT22;15802;45.654;13.804;2023-03-01T05:13:48;5.30;99.90
28608;DHT22;15802;45.654;13.804;2023-03-01T05:16:20;5.20;99.90
28608;DHT22;15802;45.654;13.804;2023-03-01T05:18:45;5.20;99.90
28608;DHT22;15802;45.654;13.804;2023-03-01T05:21:12;5.20;99.90
28608;DHT22;15802;45.654;13.804;2023-03-01T05:23:38;5.20;99.90
28608;DHT22;15802;45.654;13.804;2023-03-01T05:26:04;5.20;99.90
28608;DHT22;15802;45.654;13.804;2023-03-01T05:28:31;5.20;99.90
28608;DHT22;15802;45.654;13.804;2023-03-01T05:30:57;5.20;99.90
28608;DHT22;15802;45.654;13.804;2023-03-01T05:33:23;5.20;99.90
28608;DHT22;15802;45.654;13.804;2023-03-01T05:35:49;5.20;99.90
28608;DHT22;15802;45.654;13.804;2023-03-01T05:38:15;5.20;99.90
28608;DHT22;15802;45.654;13.804;2023-03-01T05:40:42;5.20;99.90
28608;DHT22;15802;45.654;13.804;2023-03-01T05:43:08;5.20;99.90
28608;DHT22;15802;45.654;13.804;2023-03-01T05:45:35;5.20;99.90
28608;DHT22;15802;45.654;13.804;2023-03-01T05:48:01;5.20;99.90
28608;DHT22;15802;45.654;13.804;2023-03-01T05:50:28;5.20;99.90
28608;DHT22;15802;45.654;13.804;2023-03-01T05:52:58;5.20;99.90
28608;DHT22;15802;45.654;13.804;2023-03-01T05:55:24;5.30;99.90
28608;DHT22;15802;45.654;13.804;2023-03-01T05:57:50;5.30;99.90
28608;DHT22;15802;45.654;13.804;2023-03-01T06:00:17;5.30;99.90
28608;DHT22;15802;45.654;13.804;2023-03-01T06:02:43;5.30;99.90
28608;DHT22;15802;45.654;13.804;2023-03-01T06:05:10;5.40;99.90
28608;DHT22;15802;45.654;13.804;2023-03-01T06:07:35;5.40;99.90
28608;DHT22;15802;45.654;13.804;2023-03-01T06:10:02;5.30;99.90
28608;DHT22;15802;45.654;13.804;2023-03-01T06:12:30;5.30;99.90
28608;DHT22;15802;45.654;13.804;2023-03-01T06:14:55;5.30;99.90
28608;DHT22;15802;45.654;13.804;2023-03-01T06:17:21;5.30;99.90
28608;DHT22;15802;45.654;13.804;2023-03-01T06:19:47;5.40;99.90
28608;DHT22;15802;45.654;13.804;2023-03-01T06:22:13;5.40;99.90
28608;DHT22;15802;45.654;13.804;2023-03-01T06:24:38;5.40;99.90
28608;DHT22;15802;45.654;13.804;2023-03-01T06:27:04;5.40;99.90
28608;DHT22;15802;45.654;13.804;2023-03-01T06:29:30;5.40;99.90
28608;DHT22;15802;45.654;13.804;2023-03-01T06:31:56;5.40;99.90
28608;DHT22;15802;45.654;13.804;2023-03-01T06:34:21;5.30;99.90
28608;DHT22;15802;45.654;13.804;2023-03-01T06:36:47;5.40;99.90
28608;DHT22;15802;45.654;13.804;2023-03-01T06:39:13;5.40;99.90
28608;DHT22;15802;45.654;13.804;2023-03-01T06:41:38;5.40;99.90
28608;DHT22;15802;45.654;13.804;2023-03-01T06:44:04;5.50;99.90
28608;DHT22;15802;45.654;13.804;2023-03-01T06:46:30;5.40;99.90
28608;DHT22;15802;45.654;13.804;2023-03-01T06:48:56;5.50;99.90
28608;DHT22;15802;45.654;13.804;2023-03-01T06:51:21;5.50;99.90
28608;DHT22;15802;45.654;13.804;2023-03-01T06:53:47;5.50;99.90
28608;DHT22;15802;45.654;13.804;2023-03-01T06:56:13;5.60;99.90
28608;DHT22;15802;45.654;13.804;2023-03-01T06:58:38;5.70;99.90
28608;DHT22;15802;45.654;13.804;2023-03-01T07:01:07;5.70;99.90
28608;DHT22;15802;45.654;13.804;2023-03-01T07:03:33;5.60;99.90
28608;DHT22;15802;45.654;13.804;2023-03-01T07:05:59;5.70;99.90
28608;DHT22;15802;45.654;13.804;2023-03-01T07:08:28;5.70;99.90
28608;DHT22;15802;45.654;13.804;2023-03-01T07:10:55;5.70;99.90
28608;DHT22;15802;45.654;13.804;2023-03-01T07:13:24;5.60;99.90
28608;DHT22;15802;45.654;13.804;2023-03-01T07:15:50;5.60;99.90
28608;DHT22;15802;45.654;13.804;2023-03-01T07:18:19;5.60;99.90
28608;DHT22;15802;45.654;13.804;2023-03-01T07:20:44;5.50;99.90
28608;DHT22;15802;45.654;13.804;2023-03-01T07:23:10;5.60;99.90
28608;DHT22;15802;45.654;13.804;2023-03-01T07:25:36;5.60;99.90
28608;DHT22;15802;45.654;13.804;2023-03-01T07:28:01;5.60;99.90
28608;DHT22;15802;45.654;13.804;2023-03-01T07:30:28;5.70;99.90
28608;DHT22;15802;45.654;13.804;2023-03-01T07:32:54;5.70;99.90
28608;DHT22;15802;45.654;13.804;2023-03-01T07:35:20;5.80;99.90
28608;DHT22;15802;45.654;13.804;2023-03-01T07:37:46;5.80;99.90
28608;DHT22;15802;45.654;13.804;2023-03-01T07:40:12;5.90;99.90
28608;DHT22;15802;45.654;13.804;2023-03-01T07:42:38;5.90;99.90
28608;DHT22;15802;45.654;13.804;2023-03-01T07:45:04;6.00;99.90
28608;DHT22;15802;45.654;13.804;2023-03-01T07:47:33;6.00;99.90
28608;DHT22;15802;45.654;13.804;2023-03-01T07:50:02;5.90;99.90
28608;DHT22;15802;45.654;13.804;2023-03-01T07:52:28;6.00;99.90
28608;DHT22;15802;45.654;13.804;2023-03-01T07:54:54;5.90;99.90
28608;DHT22;15802;45.654;13.804;2023-03-01T07:57:19;5.80;99.90
28608;DHT22;15802;45.654;13.804;2023-03-01T07:59:48;5.80;99.90
28608;DHT22;15802;45.654;13.804;2023-03-01T08:02:14;5.80;99.90
28608;DHT22;15802;45.654;13.804;2023-03-01T08:04:41;5.80;99.90
28608;DHT22;15802;45.654;13.804;2023-03-01T08:07:06;5.80;99.90
28608;DHT22;15802;45.654;13.804;2023-03-01T08:09:34;5.80;99.90
28608;DHT22;15802;45.654;13.804;2023-03-01T08:12:00;5.80;99.90
28608;DHT22;15802;45.654;13.804;2023-03-01T08:14:26;5.90;99.90
28608;DHT22;15802;45.654;13.804;2023-03-01T08:16:52;5.90;99.90
28608;DHT22;15802;45.654;13.804;2023-03-01T08:19:17;5.90;99.90
28608;DHT22;15802;45.654;13.804;2023-03-01T08:21:43;5.90;99.90
28608;DHT22;15802;45.654;13.804;2023-03-01T08:24:09;6.00;99.90
28608;DHT22;15802;45.654;13.804;2023-03-01T08:26:38;6.00;99.90
28608;DHT22;15802;45.654;13.804;2023-03-01T08:29:04;6.10;99.90
28608;DHT22;15802;45.654;13.804;2023-03-01T08:31:34;6.20;99.90
28608;DHT22;15802;45.654;13.804;2023-03-01T08:34:09;6.20;99.90
28608;DHT22;15802;45.654;13.804;2023-03-01T08:36:38;6.30;99.90
28608;DHT22;15802;45.654;13.804;2023-03-01T08:39:10;6.30;99.90
28608;DHT22;15802;45.654;13.804;2023-03-01T08:41:36;6.20;99.90
28608;DHT22;15802;45.654;13.804;2023-03-01T08:44:02;6.30;99.90
28608;DHT22;15802;45.654;13.804;2023-03-01T08:46:29;6.20;99.90
28608;DHT22;15802;45.654;13.804;2023-03-01T08:48:55;6.20;99.90
28608;DHT22;15802;45.654;13.804;2023-03-01T08:51:24;6.20;99.90
28608;DHT22;15802;45.654;13.804;2023-03-01T08:53:51;6.20;99.90
28608;DHT22;15802;45.654;13.804;2023-03-01T08:56:17;6.30;99.90
28608;DHT22;15802;45.654;13.804;2023-03-01T08:58:46;6.30;99.90
28608;DHT22;15802;45.654;13.804;2023-03-01T09:01:16;6.30;99.90
28608;DHT22;15802;45.654;13.804;2023-03-01T09:03:45;6.30;99.90
28608;DHT22;15802;45.654;13.804;2023-03-01T09:06:11;6.30;99.90
28608;DHT22;15802;45.654;13.804;2023-03-01T09:08:38;6.30;99.90
28608;DHT22;15802;45.654;13.804;2023-03-01T09:11:05;6.30;99.90
28608;DHT22;15802;45.654;13.804;2023-03-01T09:13:31;6.40;99.90
28608;DHT22;15802;45.654;13.804;2023-03-01T09:15:57;6.50;99.90
28608;DHT22;15802;45.654;13.804;2023-03-01T09:18:23;6.50;99.90
28608;DHT22;15802;45.654;13.804;2023-03-01T09:20:49;6.70;99.90
28608;DHT22;15802;45.654;13.804;2023-03-01T09:23:15;6.90;99.90
28608;DHT22;15802;45.654;13.804;2023-03-01T09:25:40;6.90;99.90
28608;DHT22;15802;45.654;13.804;2023-03-01T09:28:06;6.80;99.90
28608;DHT22;15802;45.654;13.804;2023-03-01T09:30:32;6.80;99.90
28608;DHT22;15802;45.654;13.804;2023-03-01T09:32:58;6.70;99.90
28608;DHT22;15802;45.654;13.804;2023-03-01T09:35:26;6.80;99.90
28608;DHT22;15802;45.654;13.804;2023-03-01T09:37:51;6.80;99.90
28608;DHT22;15802;45.654;13.804;2023-03-01T09:40:27;6.70;99.90
28608;DHT22;15802;45.654;13.804;2023-03-01T09:42:56;6.70;99.90
28608;DHT22;15802;45.654;13.804;2023-03-01T09:45:26;6.80;99.90
28608;DHT22;15802;45.654;13.804;2023-03-01T09:47:55;6.80;99.90
28608;DHT22;15802;45.654;13.804;2023-03-01T09:50:21;6.80;99.90
28608;DHT22;15802;45.654;13.804;2023-03-01T09:52:53;6.70;99.90
28608;DHT22;15802;45.654;13.804;2023-03-01T09:55:25;6.60;99.90
28608;DHT22;15802;45.654;13.804;2023-03-01T09:57:53;6.50;99.90
28608;DHT22;15802;45.654;13.804;2023-03-01T10:00:23;6.60;99.90
28608;DHT22;15802;45.654;13.804;2023-03-01T10:02:57;6.70;99.90
28608;DHT22;15802;45.654;13.804;2023-03-01T10:08:30;6.70;99.90
28608;DHT22;15802;45.654;13.804;2023-03-01T10:11:01;6.90;99.90
28608;DHT22;15802;45.654;13.804;2023-03-01T10:13:33;6.90;99.90
28608;DHT22;15802;45.654;13.804;2023-03-01T10:16:01;6.80;99.90
28608;DHT22;15802;45.654;13.804;2023-03-01T10:18:31;6.80;99.90
28608;DHT22;15802;45.654;13.804;2023-03-01T10:21:01;6.70;99.90
28608;DHT22;15802;45.654;13.804;2023-03-01T10:23:34;6.70;99.90
28608;DHT22;15802;45.654;13.804;2023-03-01T10:26:28;6.70;99.90
28608;DHT22;15802;45.654;13.804;2023-03-01T10:29:00;6.70;99.90
28608;DHT22;15802;45.654;13.804;2023-03-01T10:31:32;6.90;99.90
28608;DHT22;15802;45.654;13.804;2023-03-01T10:34:11;6.80;99.90
28608;DHT22;15802;45.654;13.804;2023-03-01T10:36:38;6.80;99.90
28608;DHT22;15802;45.654;13.804;2023-03-01T10:39:11;6.90;99.90
28608;DHT22;15802;45.654;13.804;2023-03-01T10:41:40;6.80;99.90
28608;DHT22;15802;45.654;13.804;2023-03-01T10:44:10;6.70;99.90
28608;DHT22;15802;45.654;13.804;2023-03-01T10:47:01;6.70;99.90
28608;DHT22;15802;45.654;13.804;2023-03-01T10:49:31;6.60;99.90
28608;DHT22;15802;45.654;13.804;2023-03-01T10:52:10;6.60;99.90
28608;DHT22;15802;45.654;13.804;2023-03-01T10:54:43;6.50;99.90
28608;DHT22;15802;45.654;13.804;2023-03-01T11:00:18;6.60;99.90
28608;DHT22;15802;45.654;13.804;2023-03-01T11:02:47;6.60;99.90
28608;DHT22;15802;45.654;13.804;2023-03-01T11:05:17;6.70;99.90
28608;DHT22;15802;45.654;13.804;2023-03-01T11:07:48;6.70;99.90
28608;DHT22;15802;45.654;13.804;2023-03-01T11:10:17;6.70;99.90
28608;DHT22;15802;45.654;13.804;2023-03-01T11:12:45;6.70;99.90
28608;DHT22;15802;45.654;13.804;2023-03-01T11:15:27;6.70;99.90
28608;DHT22;15802;45.654;13.804;2023-03-01T11:17:54;6.70;99.90
28608;DHT22;15802;45.654;13.804;2023-03-01T11:20:24;6.80;99.90
28608;DHT22;15802;45.654;13.804;2023-03-01T11:22:52;6.70;99.90
28608;DHT22;15802;45.654;13.804;2023-03-01T11:25:23;6.70;99.90
28608;DHT22;15802;45.654;13.804;2023-03-01T11:27:50;6.90;99.90
28608;DHT22;15802;45.654;13.804;2023-03-01T11:30:27;7.00;99.90
28608;DHT22;15802;45.654;13.804;2023-03-01T11:33:13;7.10;99.90
28608;DHT22;15802;45.654;13.804;2023-03-01T11:36:05;7.00;99.90
28608;DHT22;15802;45.654;13.804;2023-03-01T11:38:32;7.20;99.90
28608;DHT22;15802;45.654;13.804;2023-03-01T11:41:01;7.10;99.90
28608;DHT22;15802;45.654;13.804;2023-03-01T11:43:33;7.00;99.90
28608;DHT22;15802;45.654;13.804;2023-03-01T11:46:09;6.80;99.90
28608;DHT22;15802;45.654;13.804;2023-03-01T11:48:44;6.90;99.90
28608;DHT22;15802;45.654;13.804;2023-03-01T11:54:21;6.80;99.90
28608;DHT22;15802;45.654;13.804;2023-03-01T11:56:52;6.90;99.90
28608;DHT22;15802;45.654;13.804;2023-03-01T12:02:11;6.80;99.90
28608;DHT22;15802;45.654;13.804;2023-03-01T12:07:37;6.70;99.90
28608;DHT22;15802;45.654;13.804;2023-03-01T12:10:26;6.80;99.90
28608;DHT22;15802;45.654;13.804;2023-03-01T12:12:56;6.80;99.90
28608;DHT22;15802;45.654;13.804;2023-03-01T12:15:37;6.80;99.90
28608;DHT22;15802;45.654;13.804;2023-03-01T12:20:36;7.10;99.90
28608;DHT22;15802;45.654;13.804;2023-03-01T12:23:26;7.10;99.90
28608;DHT22;15802;45.654;13.804;2023-03-01T12:26:17;7.10;99.90
28608;DHT22;15802;45.654;13.804;2023-03-01T12:28:55;7.20;99.90
28608;DHT22;15802;45.654;13.804;2023-03-01T12:31:33;7.30;99.90
28608;DHT22;15802;45.654;13.804;2023-03-01T12:34:03;7.30;99.90
28608;DHT22;15802;45.654;13.804;2023-03-01T12:36:38;7.20;99.90
28608;DHT22;15802;45.654;13.804;2023-03-01T12:39:14;7.20;99.90
28608;DHT22;15802;45.654;13.804;2023-03-01T12:41:55;7.20;99.90
28608;DHT22;15802;45.654;13.804;2023-03-01T12:44:30;7.30;99.90
28608;DHT22;15802;45.654;13.804;2023-03-01T12:47:03;7.30;99.90
28608;DHT22;15802;45.654;13.804;2023-03-01T12:49:33;7.30;99.90
28608;DHT22;15802;45.654;13.804;2023-03-01T12:52:01;7.20;99.90
28608;DHT22;15802;45.654;13.804;2023-03-01T12:54:35;7.20;99.90
28608;DHT22;15802;45.654;13.804;2023-03-01T12:57:03;7.10;99.90
28608;DHT22;15802;45.654;13.804;2023-03-01T12:59:36;7.10;99.90
28608;DHT22;15802;45.654;13.804;2023-03-01T13:02:14;7.10;99.90
28608;DHT22;15802;45.654;13.804;2023-03-01T13:07:31;6.80;99.90
28608;DHT22;15802;45.654;13.804;2023-03-01T13:10:11;6.80;99.90
28608;DHT22;15802;45.654;13.804;2023-03-01T13:12:45;6.80;99.90
28608;DHT22;15802;45.654;13.804;2023-03-01T13:15:27;6.80;99.90
28608;DHT22;15802;45.654;13.804;2023-03-01T13:17:54;6.80;99.90
28608;DHT22;15802;45.654;13.804;2023-03-01T13:20:23;6.80;99.90
28608;DHT22;15802;45.654;13.804;2023-03-01T13:22:59;6.80;99.90
28608;DHT22;15802;45.654;13.804;2023-03-01T13:25:26;6.90;99.90
28608;DHT22;15802;45.654;13.804;2023-03-01T13:27:51;6.80;99.90
28608;DHT22;15802;45.654;13.804;2023-03-01T13:30:38;6.70;99.90
28608;DHT22;15802;45.654;13.804;2023-03-01T13:35:49;6.70;99.90
28608;DHT22;15802;45.654;13.804;2023-03-01T13:40:59;6.60;99.90
28608;DHT22;15802;45.654;13.804;2023-03-01T13:43:27;6.60;99.90
28608;DHT22;15802;45.654;13.804;2023-03-01T13:45:54;6.60;99.90
28608;DHT22;15802;45.654;13.804;2023-03-01T13:48:28;6.60;99.90
28608;DHT22;15802;45.654;13.804;2023-03-01T13:51:04;6.70;99.90
28608;DHT22;15802;45.654;13.804;2023-03-01T13:53:33;6.70;99.90
28608;DHT22;15802;45.654;13.804;2023-03-01T13:56:01;6.70;99.90
28608;DHT22;15802;45.654;13.804;2023-03-01T13:58:30;6.80;99.90
28608;DHT22;15802;45.654;13.804;2023-03-01T14:00:58;6.80;99.90
28608;DHT22;15802;45.654;13.804;2023-03-01T14:03:24;6.80;99.90
28608;DHT22;15802;45.654;13.804;2023-03-01T14:06:07;6.80;99.90
28608;DHT22;15802;45.654;13.804;2023-03-01T14:08:34;6.80;99.90
28608;DHT22;15802;45.654;13.804;2023-03-01T14:11:23;6.80;99.90
28608;DHT22;15802;45.654;13.804;2023-03-01T14:16:49;6.80;99.90
28608;DHT22;15802;45.654;13.804;2023-03-01T14:19:19;6.70;99.90
28608;DHT22;15802;45.654;13.804;2023-03-01T14:21:58;6.70;99.90
28608;DHT22;15802;45.654;13.804;2023-03-01T14:24:26;6.70;99.90
28608;DHT22;15802;45.654;13.804;2023-03-01T14:26:52;6.80;99.90
28608;DHT22;15802;45.654;13.804;2023-03-01T14:32:20;6.70;99.90
28608;DHT22;15802;45.654;13.804;2023-03-01T14:34:48;6.70;99.90
28608;DHT22;15802;45.654;13.804;2023-03-01T14:37:23;6.60;99.90
28608;DHT22;15802;45.654;13.804;2023-03-01T14:39:49;6.70;99.90
28608;DHT22;15802;45.654;13.804;2023-03-01T14:42:15;6.80;99.90
28608;DHT22;15802;45.654;13.804;2023-03-01T14:44:42;6.70;99.90
28608;DHT22;15802;45.654;13.804;2023-03-01T14:47:11;6.70;99.90
28608;DHT22;15802;45.654;13.804;2023-03-01T14:49:42;6.70;99.90
28608;DHT22;15802;45.654;13.804;2023-03-01T14:52:17;6.70;99.90
28608;DHT22;15802;45.654;13.804;2023-03-01T14:54:46;6.70;99.90
28608;DHT22;15802;45.654;13.804;2023-03-01T14:57:15;6.70;99.90
28608;DHT22;15802;45.654;13.804;2023-03-01T14:59:41;6.70;99.90
28608;DHT22;15802;45.654;13.804;2023-03-01T15:02:13;6.60;99.90
28608;DHT22;15802;45.654;13.804;2023-03-01T15:04:43;6.70;99.90
28608;DHT22;15802;45.654;13.804;2023-03-01T15:07:11;6.70;99.90
28608;DHT22;15802;45.654;13.804;2023-03-01T15:09:38;6.70;99.90
28608;DHT22;15802;45.654;13.804;2023-03-01T15:14:49;6.80;99.90
28608;DHT22;15802;45.654;13.804;2023-03-01T15:17:20;6.70;99.90
28608;DHT22;15802;45.654;13.804;2023-03-01T15:19:48;6.70;99.90
28608;DHT22;15802;45.654;13.804;2023-03-01T15:22:14;6.80;99.90
28608;DHT22;15802;45.654;13.804;2023-03-01T15:24:41;6.80;99.90
28608;DHT22;15802;45.654;13.804;2023-03-01T15:27:14;6.80;99.90
28608;DHT22;15802;45.654;13.804;2023-03-01T15:29:41;6.70;99.90
28608;DHT22;15802;45.654;13.804;2023-03-01T15:32:24;6.80;99.90
28608;DHT22;15802;45.654;13.804;2023-03-01T15:34:50;6.80;99.90
28608;DHT22;15802;45.654;13.804;2023-03-01T15:40:00;6.80;99.90
28608;DHT22;15802;45.654;13.804;2023-03-01T15:42:36;6.80;99.90
28608;DHT22;15802;45.654;13.804;2023-03-01T15:45:21;6.80;99.90
28608;DHT22;15802;45.654;13.804;2023-03-01T15:47:48;6.70;99.90
28608;DHT22;15802;45.654;13.804;2023-03-01T15:50:16;6.80;99.90
28608;DHT22;15802;45.654;13.804;2023-03-01T15:52:43;6.80;99.90
28608;DHT22;15802;45.654;13.804;2023-03-01T15:55:24;6.80;99.90
28608;DHT22;15802;45.654;13.804;2023-03-01T15:57:58;6.80;99.90
28608;DHT22;15802;45.654;13.804;2023-03-01T16:00:26;6.80;99.90
28608;DHT22;15802;45.654;13.804;2023-03-01T16:02:52;6.80;99.90
28608;DHT22;15802;45.654;13.804;2023-03-01T16:05:28;6.80;99.90
28608;DHT22;15802;45.654;13.804;2023-03-01T16:07:55;6.80;99.90
28608;DHT22;15802;45.654;13.804;2023-03-01T16:10:21;6.80;99.90
28608;DHT22;15802;45.654;13.804;2023-03-01T16:12:47;6.80;99.90
28608;DHT22;15802;45.654;13.804;2023-03-01T16:15:16;6.90;99.90
28608;DHT22;15802;45.654;13.804;2023-03-01T16:17:43;6.80;99.90
28608;DHT22;15802;45.654;13.804;2023-03-01T16:20:09;6.90;99.90
28608;DHT22;15802;45.654;13.804;2023-03-01T16:22:35;6.90;99.90
28608;DHT22;15802;45.654;13.804;2023-03-01T16:25:01;6.90;99.90